createdAt,value
2019-01-11T00:00:11.379Z,6.70
2019-01-11T00:01:11.395Z,8.00
2019-01-11T00:02:11.407Z,7.00
2019-01-11T00:03:11.420Z,7.00
2019-01-11T00:04:11.433Z,8.40
2019-01-11T00:05:11.449Z,8.30
2019-01-11T00:06:11.460Z,7.20
2019-01-11T00:07:11.476Z,7.50
2019-01-11T00:08:11.488Z,7.20
2019-01-11T00:09:11.503Z,8.00
2019-01-11T00:10:11.515Z,8.00
2019-01-11T00:11:11.527Z,8.00
2019-01-11T00:12:11.545Z,8.90
2019-01-11T00:13:11.553Z,8.20
2019-01-11T00:14:11.569Z,8.70
2019-01-11T00:15:11.585Z,8.40
2019-01-11T00:16:11.593Z,9.10
2019-01-11T00:17:11.609Z,9.10
2019-01-11T00:18:11.622Z,9.10
2019-01-11T00:19:11.633Z,9.60
2019-01-11T00:20:12.497Z,9.00
2019-01-11T00:21:11.661Z,10.20
2019-01-11T00:22:11.675Z,10.70
2019-01-11T00:23:11.689Z,9.60
2019-01-11T00:24:11.700Z,11.10
2019-01-11T00:25:11.713Z,11.00
2019-01-11T00:26:11.726Z,10.50
2019-01-11T00:27:11.740Z,11.90
2019-01-11T00:28:11.752Z,11.50
2019-01-11T00:29:11.770Z,11.60
2019-01-11T00:30:11.780Z,11.60
2019-01-11T00:31:11.794Z,12.70
2019-01-11T00:32:11.808Z,12.70
2019-01-11T00:33:11.823Z,13.00
2019-01-11T00:34:11.832Z,14.20
2019-01-11T00:35:11.848Z,13.10
2019-01-11T00:36:11.860Z,13.70
2019-01-11T00:37:11.872Z,12.60
2019-01-11T00:38:11.887Z,14.00
2019-01-11T00:39:11.901Z,13.40
2019-01-11T00:40:11.914Z,13.20
2019-01-11T00:41:11.927Z,13.70
2019-01-11T00:42:11.939Z,13.60
2019-01-11T00:43:15.079Z,12.50
2019-01-11T00:44:11.967Z,14.60
2019-01-11T00:45:11.982Z,14.30
2019-01-11T00:46:11.992Z,13.50
2019-01-11T00:47:12.005Z,13.40
2019-01-11T00:48:12.019Z,13.90
2019-01-11T00:49:13.706Z,14.10
2019-01-11T00:50:12.046Z,14.40
2019-01-11T00:51:12.058Z,13.40
2019-01-11T00:52:12.075Z,13.60
2019-01-11T00:53:12.087Z,13.70
2019-01-11T00:54:12.101Z,12.90
2019-01-11T00:55:12.111Z,13.50
2019-01-11T00:56:12.127Z,13.50
2019-01-11T00:57:12.142Z,13.20
2019-01-11T00:58:12.152Z,13.10
2019-01-11T00:59:12.167Z,14.20
2019-01-11T01:00:12.176Z,13.40
2019-01-11T01:01:12.193Z,13.20
2019-01-11T01:02:12.204Z,14.00
2019-01-11T01:03:12.220Z,13.30
2019-01-11T01:04:12.233Z,13.30
2019-01-11T01:05:12.245Z,13.20
2019-01-11T01:06:12.264Z,12.40
2019-01-11T01:07:12.274Z,12.60
2019-01-11T01:08:12.283Z,13.00
2019-01-11T01:09:12.298Z,11.50
2019-01-11T01:10:12.310Z,12.60
2019-01-11T01:11:12.326Z,11.80
2019-01-11T01:12:12.339Z,12.50
2019-01-11T01:13:12.353Z,12.00
2019-01-11T01:14:12.365Z,12.90
2019-01-11T01:15:12.376Z,11.80
2019-01-11T01:16:12.389Z,11.90
2019-01-11T01:17:12.403Z,12.70
2019-01-11T01:18:12.420Z,12.00
2019-01-11T01:19:12.431Z,12.60
2019-01-11T01:20:12.443Z,12.80
2019-01-11T01:21:12.460Z,12.70
2019-01-11T01:22:12.473Z,12.80
2019-01-11T01:23:12.489Z,13.90
2019-01-11T01:24:12.496Z,13.80
2019-01-11T01:25:12.510Z,12.50
2019-01-11T01:26:12.524Z,12.90
2019-01-11T01:27:12.537Z,13.90
2019-01-11T01:28:12.553Z,13.70
2019-01-11T01:29:12.566Z,13.70
2019-01-11T01:30:12.579Z,14.00
2019-01-11T01:31:12.593Z,13.30
2019-01-11T01:32:12.605Z,14.40
2019-01-11T01:33:12.622Z,13.40
2019-01-11T01:34:12.630Z,12.20
2019-01-11T01:35:12.646Z,13.90
2019-01-11T01:36:12.659Z,13.80
2019-01-11T01:37:12.671Z,13.50
2019-01-11T01:38:12.686Z,13.20
2019-01-11T01:39:12.701Z,13.60
2019-01-11T01:40:12.712Z,14.00
2019-01-11T01:41:12.726Z,14.20
2019-01-11T01:42:12.738Z,13.20
2019-01-11T01:43:12.751Z,13.70
2019-01-11T01:44:12.764Z,13.30
2019-01-11T01:45:12.780Z,14.10
2019-01-11T01:46:12.793Z,13.80
2019-01-11T01:47:12.806Z,13.40
2019-01-11T01:48:12.818Z,13.40
2019-01-11T01:49:12.834Z,13.60
2019-01-11T01:50:12.847Z,13.70
2019-01-11T01:51:12.861Z,13.70
2019-01-11T01:52:12.871Z,14.10
2019-01-11T01:53:12.888Z,14.20
2019-01-11T01:54:12.897Z,13.80
2019-01-11T01:55:12.914Z,14.50
2019-01-11T01:56:12.926Z,13.50
2019-01-11T01:57:12.937Z,13.80
2019-01-11T01:58:12.951Z,13.10
2019-01-11T01:59:12.966Z,13.90
2019-01-11T02:00:12.977Z,12.90
2019-01-11T02:01:12.991Z,13.80
2019-01-11T02:02:13.008Z,13.80
2019-01-11T02:03:13.018Z,13.70
2019-01-11T02:04:13.031Z,13.20
2019-01-11T02:05:13.044Z,12.40
2019-01-11T02:06:13.063Z,13.20
2019-01-11T02:07:13.072Z,12.90
2019-01-11T02:08:13.086Z,13.10
2019-01-11T02:09:13.101Z,12.30
2019-01-11T02:10:13.113Z,13.00
2019-01-11T02:11:13.128Z,12.90
2019-01-11T02:12:13.138Z,12.60
2019-01-11T02:13:13.151Z,12.70
2019-01-11T02:14:13.168Z,12.30
2019-01-11T02:15:13.181Z,13.10
2019-01-11T02:16:13.192Z,12.90
2019-01-11T02:17:13.205Z,13.00
2019-01-11T02:18:13.219Z,12.50
2019-01-11T02:19:13.232Z,12.00
2019-01-11T02:20:13.245Z,13.20
2019-01-11T02:21:13.258Z,13.80
2019-01-11T02:22:13.274Z,12.30
2019-01-11T02:23:13.287Z,13.60
2019-01-11T02:24:13.298Z,13.40
2019-01-11T02:25:13.312Z,12.50
2019-01-11T02:26:13.325Z,12.70
2019-01-11T02:27:13.341Z,13.60
2019-01-11T02:28:13.351Z,13.50
2019-01-11T02:29:13.365Z,13.00
2019-01-11T02:30:13.382Z,12.70
2019-01-11T02:31:13.393Z,13.70
2019-01-11T02:32:13.409Z,13.40
2019-01-11T02:33:13.422Z,13.80
2019-01-11T02:34:13.435Z,14.20
2019-01-11T02:35:13.448Z,13.70
2019-01-11T02:36:13.461Z,13.70
2019-01-11T02:37:13.478Z,14.30
2019-01-11T02:38:13.488Z,14.90
2019-01-11T02:39:13.501Z,15.10
2019-01-11T02:40:13.514Z,13.90
2019-01-11T02:41:13.529Z,13.30
2019-01-11T02:42:13.549Z,14.20
2019-01-11T02:43:13.556Z,15.00
2019-01-11T02:44:13.571Z,14.60
2019-01-11T02:45:13.583Z,14.60
2019-01-11T02:46:13.597Z,14.20
2019-01-11T02:47:13.608Z,14.70
2019-01-11T02:48:13.623Z,14.90
2019-01-11T02:49:13.638Z,14.60
2019-01-11T02:50:13.651Z,14.20
2019-01-11T02:51:13.663Z,14.30
2019-01-11T02:52:13.676Z,15.10
2019-01-11T02:53:13.690Z,14.80
2019-01-11T02:54:13.703Z,14.80
2019-01-11T02:55:13.718Z,15.00
2019-01-11T02:56:13.730Z,14.50
2019-01-11T02:57:13.744Z,14.70
2019-01-11T02:58:13.757Z,14.70
2019-01-11T02:59:13.772Z,15.10
2019-01-11T03:00:13.787Z,15.80
2019-01-11T03:01:13.795Z,14.80
2019-01-11T03:02:13.808Z,15.00
2019-01-11T03:03:13.825Z,15.00
2019-01-11T03:04:13.838Z,15.10
2019-01-11T03:05:13.853Z,15.50
2019-01-11T03:06:13.866Z,15.60
2019-01-11T03:07:13.879Z,15.40
2019-01-11T03:08:13.892Z,16.90
2019-01-11T03:09:13.904Z,15.70
2019-01-11T03:10:13.921Z,15.40
2019-01-11T03:11:13.930Z,15.40
2019-01-11T03:12:13.943Z,15.80
2019-01-11T03:13:13.960Z,15.90
2019-01-11T03:14:13.973Z,15.50
2019-01-11T03:15:13.988Z,16.60
2019-01-11T03:16:13.999Z,16.70
2019-01-11T03:17:14.016Z,15.80
2019-01-11T03:18:14.026Z,15.70
2019-01-11T03:19:14.040Z,16.10
2019-01-11T03:20:14.050Z,15.10
2019-01-11T03:21:14.065Z,15.20
2019-01-11T03:22:14.078Z,15.30
2019-01-11T03:23:14.092Z,16.10
2019-01-11T03:24:14.107Z,16.50
2019-01-11T03:25:14.124Z,15.70
2019-01-11T03:26:14.135Z,16.30
2019-01-11T03:27:14.145Z,15.20
2019-01-11T03:28:14.161Z,16.00
2019-01-11T03:29:14.176Z,16.60
2019-01-11T03:30:14.221Z,16.00
2019-01-11T03:31:14.200Z,16.70
2019-01-11T03:32:14.212Z,17.90
2019-01-11T03:33:14.234Z,18.20
2019-01-11T03:34:14.238Z,16.80
2019-01-11T03:35:14.255Z,17.20
2019-01-11T03:36:14.266Z,17.90
2019-01-11T03:37:14.282Z,17.10
2019-01-11T03:38:14.294Z,16.40
2019-01-11T03:39:14.305Z,17.80
2019-01-11T03:40:14.320Z,17.40
2019-01-11T03:41:14.332Z,17.20
2019-01-11T03:42:14.348Z,18.90
2019-01-11T03:43:14.363Z,17.30
2019-01-11T03:44:14.379Z,18.10
2019-01-11T03:45:14.386Z,17.20
2019-01-11T03:46:14.402Z,17.70
2019-01-11T03:47:14.416Z,18.30
2019-01-11T03:48:14.430Z,17.60
2019-01-11T03:49:14.445Z,18.70
2019-01-11T03:50:14.456Z,18.40
2019-01-11T03:51:14.472Z,18.00
2019-01-11T03:52:14.481Z,17.40
2019-01-11T03:53:14.495Z,18.40
2019-01-11T03:54:14.508Z,18.50
2019-01-11T03:55:14.533Z,18.00
2019-01-11T03:56:14.542Z,18.70
2019-01-11T03:57:14.549Z,18.10
2019-01-11T03:58:14.565Z,18.50
2019-01-11T03:59:14.574Z,16.60
2019-01-11T04:00:14.588Z,18.20
2019-01-11T04:01:14.603Z,18.90
2019-01-11T04:02:14.618Z,18.40
2019-01-11T04:03:14.629Z,17.70
2019-01-11T04:04:14.643Z,18.00
2019-01-11T04:05:14.658Z,17.60
2019-01-11T04:06:14.673Z,16.90
2019-01-11T04:07:14.685Z,17.60
2019-01-11T04:08:14.699Z,16.70
2019-01-11T04:09:14.709Z,17.90
2019-01-11T04:10:14.724Z,18.70
2019-01-11T04:11:14.740Z,16.70
2019-01-11T04:12:14.752Z,17.80
2019-01-11T04:13:14.766Z,17.10
2019-01-11T04:14:14.783Z,17.50
2019-01-11T04:15:14.795Z,17.10
2019-01-11T04:16:14.804Z,17.60
2019-01-11T04:17:14.821Z,17.30
2019-01-11T04:18:14.832Z,17.50
2019-01-11T04:19:14.849Z,17.70
2019-01-11T04:20:15.514Z,16.80
2019-01-11T04:21:14.875Z,15.40
2019-01-11T04:22:14.898Z,16.60
2019-01-11T04:23:14.901Z,16.50
2019-01-11T04:24:14.913Z,16.10
2019-01-11T04:25:14.932Z,17.50
2019-01-11T04:26:14.948Z,16.20
2019-01-11T04:27:14.956Z,16.60
2019-01-11T04:28:14.973Z,16.80
2019-01-11T04:29:14.984Z,17.50
2019-01-11T04:30:14.999Z,17.20
2019-01-11T04:31:15.014Z,17.00
2019-01-11T04:32:15.125Z,16.50
2019-01-11T04:33:15.040Z,17.00
2019-01-11T04:34:15.053Z,16.80
2019-01-11T04:35:15.068Z,17.10
2019-01-11T04:36:15.086Z,16.40
2019-01-11T04:37:15.094Z,16.10
2019-01-11T04:38:15.104Z,15.70
2019-01-11T04:39:15.118Z,15.70
2019-01-11T04:40:15.167Z,17.60
2019-01-11T04:41:15.149Z,16.40
2019-01-11T04:42:15.162Z,17.00
2019-01-11T04:43:15.173Z,15.80
2019-01-11T04:44:15.189Z,17.20
2019-01-11T04:45:15.201Z,17.20
2019-01-11T04:46:15.216Z,17.50
2019-01-11T04:47:15.599Z,17.90
2019-01-11T04:48:15.241Z,17.30
2019-01-11T04:49:15.255Z,17.60
2019-01-11T04:50:15.267Z,19.00
2019-01-11T04:51:15.285Z,17.60
2019-01-11T04:52:15.294Z,17.60
2019-01-11T04:53:15.312Z,17.50
2019-01-11T04:54:15.326Z,17.20
2019-01-11T04:55:15.336Z,17.90
2019-01-11T04:56:15.352Z,19.10
2019-01-11T04:57:15.367Z,18.80
2019-01-11T04:58:15.379Z,19.00
2019-01-11T04:59:15.394Z,18.20
2019-01-11T05:00:15.407Z,18.30
2019-01-11T05:01:15.417Z,18.40
2019-01-11T05:02:15.438Z,18.90
2019-01-11T05:03:15.454Z,18.00
2019-01-11T05:04:15.464Z,19.30
2019-01-11T05:05:15.472Z,18.10
2019-01-11T05:06:15.487Z,19.80
2019-01-11T05:07:15.501Z,20.60
2019-01-11T05:08:15.515Z,20.30
2019-01-11T05:09:15.530Z,20.40
2019-01-11T05:10:15.550Z,20.60
2019-01-11T05:11:15.563Z,20.30
2019-01-11T05:12:15.570Z,19.90
2019-01-11T05:13:15.588Z,20.40
2019-01-11T05:14:15.597Z,20.60
2019-01-11T05:15:15.617Z,20.20
2019-01-11T05:16:15.625Z,21.50
2019-01-11T05:17:15.638Z,21.70
2019-01-11T05:18:15.655Z,22.10
2019-01-11T05:19:15.672Z,22.20
2019-01-11T05:20:17.286Z,22.10
2019-01-11T05:21:15.696Z,22.30
2019-01-11T05:22:15.708Z,23.90
2019-01-11T05:23:15.724Z,22.90
2019-01-11T05:24:15.736Z,22.80
2019-01-11T05:25:15.748Z,23.80
2019-01-11T05:26:15.761Z,22.70
2019-01-11T05:27:15.775Z,22.90
2019-01-11T05:28:15.788Z,24.30
2019-01-11T05:29:15.804Z,24.80
2019-01-11T05:30:15.817Z,25.30
2019-01-11T05:31:15.831Z,25.20
2019-01-11T05:32:15.843Z,24.40
2019-01-11T05:33:15.860Z,23.20
2019-01-11T05:34:15.871Z,24.80
2019-01-11T05:35:15.890Z,25.10
2019-01-11T05:36:15.900Z,26.40
2019-01-11T05:37:15.915Z,24.50
2019-01-11T05:38:15.928Z,25.00
2019-01-11T05:39:16.396Z,24.60
2019-01-11T05:40:15.994Z,25.30
2019-01-11T05:41:15.969Z,24.00
2019-01-11T05:42:16.037Z,24.60
2019-01-11T05:43:16.000Z,24.60
2019-01-11T05:44:16.011Z,24.00
2019-01-11T05:45:16.026Z,25.70
2019-01-11T05:46:16.041Z,25.80
2019-01-11T05:47:16.052Z,26.60
2019-01-11T05:48:16.065Z,26.50
2019-01-11T05:49:16.079Z,23.90
2019-01-11T05:50:16.093Z,27.10
2019-01-11T05:51:16.108Z,26.10
2019-01-11T05:52:16.120Z,27.60
2019-01-11T05:53:16.135Z,26.50
2019-01-11T05:54:16.151Z,26.80
2019-01-11T05:55:16.165Z,26.50
2019-01-11T05:56:16.180Z,25.90
2019-01-11T05:57:16.191Z,26.70
2019-01-11T05:58:16.207Z,26.50
2019-01-11T05:59:16.220Z,26.00
2019-01-11T06:00:16.233Z,24.80
2019-01-11T06:01:16.245Z,24.00
2019-01-11T06:02:16.263Z,26.60
2019-01-11T06:03:16.277Z,25.00
2019-01-11T06:04:16.290Z,27.50
2019-01-11T06:05:16.303Z,27.50
2019-01-11T06:06:16.323Z,27.30
2019-01-11T06:07:16.330Z,27.70
2019-01-11T06:08:16.343Z,79.30
2019-01-11T06:09:16.360Z,37.10
2019-01-11T06:10:16.377Z,29.50
2019-01-11T06:11:16.389Z,28.10
2019-01-11T06:12:16.398Z,27.40
2019-01-11T06:13:16.413Z,26.60
2019-01-11T06:14:16.426Z,27.50
2019-01-11T06:15:16.441Z,26.20
2019-01-11T06:16:16.603Z,26.80
2019-01-11T06:17:16.468Z,27.30
2019-01-11T06:18:16.482Z,27.70
2019-01-11T06:19:16.499Z,27.60
2019-01-11T06:20:16.511Z,29.40
2019-01-11T06:21:16.524Z,28.60
2019-01-11T06:22:16.540Z,30.30
2019-01-11T06:23:16.554Z,28.10
2019-01-11T06:24:16.567Z,28.60
2019-01-11T06:25:16.581Z,29.90
2019-01-11T06:26:16.595Z,29.00
2019-01-11T06:27:16.609Z,28.00
2019-01-11T06:28:16.619Z,29.40
2019-01-11T06:29:16.637Z,28.60
2019-01-11T06:30:16.649Z,29.40
2019-01-11T06:31:16.667Z,29.90
2019-01-11T06:32:16.679Z,30.30
2019-01-11T06:33:16.691Z,31.70
2019-01-11T06:34:16.704Z,30.50
2019-01-11T06:35:16.717Z,30.50
2019-01-11T06:36:16.733Z,31.30
2019-01-11T06:37:16.747Z,29.70
2019-01-11T06:38:16.765Z,31.20
2019-01-11T06:39:16.773Z,31.20
2019-01-11T06:40:16.787Z,30.60
2019-01-11T06:41:16.802Z,29.70
2019-01-11T06:42:16.817Z,30.30
2019-01-11T06:43:16.829Z,29.30
2019-01-11T06:44:16.842Z,31.70
2019-01-11T06:45:16.858Z,31.10
2019-01-11T06:46:16.874Z,29.30
2019-01-11T06:47:18.431Z,31.20
2019-01-11T06:48:16.898Z,30.00
2019-01-11T06:49:16.916Z,29.90
2019-01-11T06:50:16.928Z,29.80
2019-01-11T06:51:16.943Z,29.20
2019-01-11T06:52:16.954Z,29.90
2019-01-11T06:53:16.968Z,30.80
2019-01-11T06:54:16.985Z,29.10
2019-01-11T06:55:16.997Z,30.30
2019-01-11T06:56:17.014Z,30.90
2019-01-11T06:57:17.378Z,32.30
2019-01-11T06:58:17.040Z,29.70
2019-01-11T06:59:17.060Z,30.30
2019-01-11T07:00:17.068Z,29.90
2019-01-11T07:01:17.081Z,31.70
2019-01-11T07:02:17.097Z,30.70
2019-01-11T07:03:17.110Z,32.70
2019-01-11T07:04:17.123Z,29.30
2019-01-11T07:05:17.137Z,28.80
2019-01-11T07:06:17.151Z,30.60
2019-01-11T07:07:17.166Z,30.20
2019-01-11T07:08:17.180Z,30.30
2019-01-11T07:09:17.195Z,29.90
2019-01-11T07:10:17.211Z,30.50
2019-01-11T07:11:17.221Z,28.70
2019-01-11T07:12:17.234Z,29.70
2019-01-11T07:13:17.248Z,29.80
2019-01-11T07:14:17.262Z,30.20
2019-01-11T07:15:17.279Z,29.30
2019-01-11T07:16:17.292Z,29.30
2019-01-11T07:17:17.306Z,29.40
2019-01-11T07:18:17.318Z,29.50
2019-01-11T07:19:17.331Z,32.30
2019-01-11T07:20:17.345Z,32.60
2019-01-11T07:21:17.365Z,31.30
2019-01-11T07:22:17.375Z,30.40
2019-01-11T07:23:17.387Z,29.50
2019-01-11T07:24:17.403Z,32.20
2019-01-11T07:25:17.418Z,31.50
2019-01-11T07:26:17.431Z,29.60
2019-01-11T07:27:17.443Z,30.60
2019-01-11T07:28:17.458Z,32.00
2019-01-11T07:29:17.477Z,32.60
2019-01-11T07:30:17.486Z,31.80
2019-01-11T07:31:17.501Z,31.00
2019-01-11T07:32:17.515Z,32.70
2019-01-11T07:33:17.526Z,32.50
2019-01-11T07:34:17.543Z,31.40
2019-01-11T07:35:17.557Z,32.10
2019-01-11T07:36:17.573Z,32.30
2019-01-11T07:37:17.582Z,31.70
2019-01-11T07:38:17.597Z,32.50
2019-01-11T07:39:17.613Z,32.30
2019-01-11T07:40:17.627Z,32.80
2019-01-11T07:41:17.638Z,33.70
2019-01-11T07:42:17.655Z,34.00
2019-01-11T07:43:17.667Z,33.00
2019-01-11T07:44:17.686Z,34.30
2019-01-11T07:45:17.695Z,33.70
2019-01-11T07:46:17.711Z,34.30
2019-01-11T07:47:17.725Z,32.40
2019-01-11T07:48:17.740Z,34.70
2019-01-11T07:49:23.105Z,33.50
2019-01-11T07:50:17.765Z,34.20
2019-01-11T07:51:17.781Z,34.20
2019-01-11T07:52:17.792Z,33.90
2019-01-11T07:53:17.809Z,34.10
2019-01-11T07:54:17.822Z,33.90
2019-01-11T07:55:18.089Z,33.20
2019-01-11T07:56:17.851Z,34.10
2019-01-11T07:57:17.871Z,34.40
2019-01-11T07:58:17.880Z,35.50
2019-01-11T07:59:17.894Z,35.00
2019-01-11T08:00:17.909Z,34.60
2019-01-11T08:01:17.924Z,35.20
2019-01-11T08:02:17.935Z,35.70
2019-01-11T08:03:17.950Z,34.20
2019-01-11T08:04:17.962Z,33.90
2019-01-11T08:05:17.980Z,35.40
2019-01-11T08:06:17.998Z,34.60
2019-01-11T08:07:18.007Z,34.80
2019-01-11T08:08:18.019Z,35.50
2019-01-11T08:09:18.035Z,35.00
2019-01-11T08:10:18.047Z,35.90
2019-01-11T08:11:18.064Z,32.90
2019-01-11T08:12:18.075Z,34.30
2019-01-11T08:13:18.093Z,36.20
2019-01-11T08:14:18.104Z,34.60
2019-01-11T08:15:18.171Z,35.50
2019-01-11T08:16:18.131Z,36.50
2019-01-11T08:17:18.148Z,36.90
2019-01-11T08:18:18.228Z,36.90
2019-01-11T08:19:18.177Z,36.00
2019-01-11T08:20:18.187Z,35.40
2019-01-11T08:21:18.204Z,36.20
2019-01-11T08:22:18.242Z,35.40
2019-01-11T08:23:18.231Z,33.70
2019-01-11T08:24:18.248Z,33.70
2019-01-11T08:25:18.259Z,37.50
2019-01-11T08:26:18.273Z,36.40
2019-01-11T08:27:18.287Z,38.00
2019-01-11T08:28:18.301Z,36.70
2019-01-11T08:29:18.315Z,37.20
2019-01-11T08:30:18.329Z,35.60
2019-01-11T08:31:18.347Z,34.70
2019-01-11T08:32:18.357Z,35.40
2019-01-11T08:33:18.882Z,35.10
2019-01-11T08:34:18.388Z,38.50
2019-01-11T08:35:18.404Z,36.50
2019-01-11T08:36:18.422Z,33.60
2019-01-11T08:37:18.428Z,37.60
2019-01-11T08:38:18.444Z,36.20
2019-01-11T08:39:18.459Z,34.10
2019-01-11T08:40:18.476Z,35.80
2019-01-11T08:41:18.487Z,35.40
2019-01-11T08:42:18.505Z,35.70
2019-01-11T08:43:18.518Z,35.30
2019-01-11T08:44:18.530Z,35.30
2019-01-11T08:45:18.542Z,34.70
2019-01-11T08:46:18.556Z,34.50
2019-01-11T08:47:18.573Z,36.40
2019-01-11T08:48:18.586Z,35.00
2019-01-11T08:49:18.600Z,32.90
2019-01-11T08:50:18.616Z,36.30
2019-01-11T08:51:18.628Z,35.10
2019-01-11T08:52:18.643Z,33.90
2019-01-11T08:53:18.656Z,36.20
2019-01-11T08:54:18.671Z,37.30
2019-01-11T08:55:18.693Z,35.50
2019-01-11T08:56:18.701Z,34.50
2019-01-11T08:57:18.713Z,35.70
2019-01-11T08:58:18.730Z,35.00
2019-01-11T08:59:18.742Z,35.00
2019-01-11T09:00:18.755Z,33.80
2019-01-11T09:01:18.872Z,34.70
2019-01-11T09:02:18.792Z,33.10
2019-01-11T09:03:18.800Z,32.90
2019-01-11T09:04:18.816Z,33.60
2019-01-11T09:05:18.828Z,32.70
2019-01-11T09:06:18.842Z,33.80
2019-01-11T09:07:18.864Z,34.80
2019-01-11T09:08:18.876Z,32.90
2019-01-11T09:09:18.885Z,32.80
2019-01-11T09:10:22.595Z,32.60
2019-01-11T09:11:18.917Z,32.70
2019-01-11T09:12:18.931Z,34.00
2019-01-11T09:13:18.946Z,34.70
2019-01-11T09:14:18.958Z,32.70
2019-01-11T09:15:18.977Z,34.30
2019-01-11T09:16:20.806Z,32.00
2019-01-11T09:17:19.002Z,34.00
2019-01-11T09:18:19.019Z,34.50
2019-01-11T09:19:19.034Z,33.20
2019-01-11T09:20:19.047Z,33.40
2019-01-11T09:21:19.063Z,34.00
2019-01-11T09:22:19.077Z,34.30
2019-01-11T09:23:19.090Z,33.90
2019-01-11T09:24:19.104Z,34.80
2019-01-11T09:25:19.123Z,32.50
2019-01-11T09:26:19.141Z,34.80
2019-01-11T09:27:19.157Z,34.00
2019-01-11T09:28:19.164Z,33.00
2019-01-11T09:29:19.185Z,34.00
2019-01-11T09:30:19.196Z,33.70
2019-01-11T09:31:19.209Z,33.70
2019-01-11T09:32:19.227Z,33.60
2019-01-11T09:33:20.729Z,34.30
2019-01-11T09:34:19.506Z,34.30
2019-01-11T09:35:19.272Z,32.90
2019-01-11T09:36:19.282Z,33.40
2019-01-11T09:37:19.297Z,35.40
2019-01-11T09:38:19.412Z,33.10
2019-01-11T09:39:19.330Z,33.40
2019-01-11T09:40:19.341Z,33.80
2019-01-11T09:41:19.356Z,32.30
2019-01-11T09:42:19.374Z,33.60
2019-01-11T09:43:19.387Z,31.90
2019-01-11T09:44:19.402Z,32.00
2019-01-11T09:45:19.416Z,31.60
2019-01-11T09:46:19.433Z,33.50
2019-01-11T09:47:19.449Z,32.20
2019-01-11T09:48:19.464Z,32.00
2019-01-11T09:49:19.476Z,33.50
2019-01-11T09:50:19.494Z,32.60
2019-01-11T09:51:19.505Z,32.60
2019-01-11T09:52:19.522Z,30.60
2019-01-11T09:53:19.536Z,33.50
2019-01-11T09:54:19.599Z,32.70
2019-01-11T09:55:19.569Z,30.20
2019-01-11T09:56:19.582Z,32.10
2019-01-11T09:57:19.603Z,32.40
2019-01-11T09:58:19.613Z,32.70
2019-01-11T09:59:19.627Z,33.00
2019-01-11T10:00:19.642Z,31.40
2019-01-11T10:01:19.659Z,32.20
2019-01-11T10:02:19.671Z,29.40
2019-01-11T10:03:19.687Z,33.30
2019-01-11T10:04:19.701Z,32.30
2019-01-11T10:05:19.716Z,31.50
2019-01-11T10:06:19.733Z,31.90
2019-01-11T10:07:19.745Z,31.40
2019-01-11T10:08:20.111Z,32.20
2019-01-11T10:09:19.776Z,31.70
2019-01-11T10:10:19.801Z,30.50
2019-01-11T10:11:19.805Z,32.00
2019-01-11T10:12:19.819Z,31.90
2019-01-11T10:13:19.837Z,32.60
2019-01-11T10:14:19.852Z,32.20
2019-01-11T10:15:19.866Z,30.80
2019-01-11T10:16:19.882Z,31.10
2019-01-11T10:17:19.896Z,31.40
2019-01-11T10:18:19.910Z,31.10
2019-01-11T10:19:19.925Z,29.30
2019-01-11T10:20:19.941Z,30.70
2019-01-11T10:21:23.059Z,29.90
2019-01-11T10:22:19.992Z,28.90
2019-01-11T10:23:19.987Z,28.50
2019-01-11T10:24:20.000Z,30.10
2019-01-11T10:25:20.020Z,28.30
2019-01-11T10:26:20.031Z,28.90
2019-01-11T10:27:20.046Z,27.60
2019-01-11T10:28:20.060Z,27.70
2019-01-11T10:29:20.079Z,27.00
2019-01-11T10:30:20.102Z,26.40
2019-01-11T10:31:20.108Z,26.90
2019-01-11T10:32:20.122Z,29.30
2019-01-11T10:33:20.140Z,25.80
2019-01-11T10:34:20.152Z,25.80
2019-01-11T10:35:20.168Z,24.60
2019-01-11T10:36:20.182Z,24.80
2019-01-11T10:37:20.197Z,25.30
2019-01-11T10:38:20.215Z,24.90
2019-01-11T10:39:20.232Z,23.90
2019-01-11T10:40:20.247Z,27.00
2019-01-11T10:41:20.263Z,24.20
2019-01-11T10:42:20.377Z,24.30
2019-01-11T10:43:20.294Z,23.90
2019-01-11T10:44:20.305Z,25.70
2019-01-11T10:45:20.322Z,24.60
2019-01-11T10:46:20.338Z,24.20
2019-01-11T10:47:20.354Z,24.70
2019-01-11T10:48:20.366Z,23.50
2019-01-11T10:49:20.383Z,25.00
2019-01-11T10:50:20.399Z,25.20
2019-01-11T10:51:20.414Z,25.30
2019-01-11T10:52:20.431Z,24.40
2019-01-11T10:53:20.446Z,25.70
2019-01-11T10:54:20.460Z,25.90
2019-01-11T10:55:20.476Z,25.80
2019-01-11T10:56:20.491Z,25.90
2019-01-11T10:57:20.509Z,26.60
2019-01-11T10:58:20.523Z,24.50
2019-01-11T10:59:20.537Z,25.20
2019-01-11T11:00:20.555Z,25.40
2019-01-11T11:01:20.570Z,24.00
2019-01-11T11:02:20.586Z,25.30
2019-01-11T11:03:20.602Z,26.00
2019-01-11T11:04:20.617Z,26.00
2019-01-11T11:05:20.633Z,26.70
2019-01-11T11:06:20.646Z,25.20
2019-01-11T11:07:20.661Z,25.50
2019-01-11T11:08:20.679Z,24.60
2019-01-11T11:09:20.692Z,24.10
2019-01-11T11:10:20.710Z,24.90
2019-01-11T11:11:20.724Z,23.00
2019-01-11T11:12:20.740Z,24.00
2019-01-11T11:13:20.754Z,22.60
2019-01-11T11:14:20.771Z,23.40
2019-01-11T11:15:20.789Z,22.10
2019-01-11T11:16:20.800Z,21.90
2019-01-11T11:17:20.816Z,22.40
2019-01-11T11:18:20.835Z,22.70
2019-01-11T11:19:20.891Z,21.40
2019-01-11T11:20:20.865Z,22.90
2019-01-11T11:21:20.878Z,23.10
2019-01-11T11:22:21.297Z,23.80
2019-01-11T11:23:20.910Z,21.80
2019-01-11T11:24:20.927Z,22.90
2019-01-11T11:25:21.294Z,22.00
2019-01-11T11:26:20.956Z,21.00
2019-01-11T11:27:20.975Z,22.10
2019-01-11T11:28:20.987Z,20.90
2019-01-11T11:29:21.006Z,21.40
2019-01-11T11:30:21.021Z,21.90
2019-01-11T11:31:21.037Z,21.40
2019-01-11T11:32:21.052Z,20.80
2019-01-11T11:33:21.067Z,20.20
2019-01-11T11:34:21.081Z,20.50
2019-01-11T11:35:21.099Z,20.70
2019-01-11T11:36:21.114Z,22.40
2019-01-11T11:37:21.128Z,21.50
2019-01-11T11:38:21.146Z,22.00
2019-01-11T11:39:21.163Z,20.50
2019-01-11T11:40:21.176Z,19.40
2019-01-11T11:41:21.194Z,18.80
2019-01-11T11:42:21.207Z,18.40
2019-01-11T11:43:21.226Z,19.20
2019-01-11T11:44:21.238Z,18.00
2019-01-11T11:45:21.254Z,17.00
2019-01-11T11:46:21.270Z,17.30
2019-01-11T11:47:21.287Z,16.80
2019-01-11T11:48:21.307Z,19.20
2019-01-11T11:49:21.320Z,17.20
2019-01-11T11:50:21.333Z,17.10
2019-01-11T11:51:21.349Z,16.00
2019-01-11T11:52:21.364Z,17.10
2019-01-11T11:53:21.380Z,16.10
2019-01-11T11:54:21.399Z,16.10
2019-01-11T11:55:21.412Z,16.80
2019-01-11T11:56:21.429Z,16.90
2019-01-11T11:57:21.445Z,16.70
2019-01-11T11:58:21.462Z,17.70
2019-01-11T11:59:21.475Z,17.90
2019-01-11T12:00:21.493Z,18.10
2019-01-11T12:01:21.507Z,18.20
2019-01-11T12:02:21.526Z,18.70
2019-01-11T12:03:21.541Z,18.80
2019-01-11T12:04:21.554Z,19.10
2019-01-11T12:05:21.572Z,18.70
2019-01-11T12:06:21.589Z,17.90
2019-01-11T12:07:21.604Z,19.10
2019-01-11T12:08:21.617Z,18.80
2019-01-11T12:09:21.635Z,19.00
2019-01-11T12:10:21.650Z,18.10
2019-01-11T12:11:21.666Z,17.20
2019-01-11T12:12:21.681Z,17.50
2019-01-11T12:13:21.701Z,16.80
2019-01-11T12:14:21.713Z,43.40
2019-01-11T12:15:21.733Z,24.80
2019-01-11T12:16:21.744Z,18.20
2019-01-11T12:17:21.764Z,17.90
2019-01-11T12:18:21.779Z,24.50
2019-01-11T12:19:21.795Z,22.60
2019-01-11T12:20:21.808Z,21.70
2019-01-11T12:21:21.826Z,19.80
2019-01-11T12:22:21.911Z,19.20
2019-01-11T12:23:21.856Z,16.50
2019-01-11T12:24:21.874Z,17.50
2019-01-11T12:25:21.892Z,18.40
2019-01-11T12:26:21.903Z,18.20
2019-01-11T12:27:21.922Z,19.40
2019-01-11T12:28:21.937Z,18.20
2019-01-11T12:29:21.952Z,18.90
2019-01-11T12:30:21.970Z,18.10
2019-01-11T12:31:21.985Z,19.50
2019-01-11T12:32:22.000Z,20.70
2019-01-11T12:33:22.016Z,19.60
2019-01-11T12:34:22.031Z,18.90
2019-01-11T12:35:22.046Z,19.70
2019-01-11T12:36:22.064Z,21.60
2019-01-11T12:37:22.078Z,21.10
2019-01-11T12:38:22.097Z,21.20
2019-01-11T12:39:22.116Z,20.70
2019-01-11T12:40:22.125Z,19.60
2019-01-11T12:41:22.145Z,21.00
2019-01-11T12:42:22.162Z,22.30
2019-01-11T12:43:22.174Z,20.80
2019-01-11T12:44:22.291Z,19.40
2019-01-11T12:45:22.248Z,17.90
2019-01-11T12:46:22.222Z,18.20
2019-01-11T12:47:22.237Z,16.80
2019-01-11T12:48:22.253Z,15.50
2019-01-11T12:49:22.272Z,15.80
2019-01-11T12:50:22.286Z,14.40
2019-01-11T12:51:22.300Z,16.20
2019-01-11T12:52:22.320Z,14.60
2019-01-11T12:53:22.335Z,14.70